createdAt,value
2022-12-27T00:01:30.850Z,101730.78
2022-12-27T00:03:57.401Z,101748.28
2022-12-27T00:06:26.138Z,101735.66
2022-12-27T00:08:53.144Z,101731.50
2022-12-27T00:11:22.857Z,101727.09
2022-12-27T00:13:49.769Z,101730.81
2022-12-27T00:16:19.104Z,101733.53
2022-12-27T00:18:46.562Z,101737.25
2022-12-27T00:21:14.071Z,101749.97
2022-12-27T00:23:45.070Z,101733.97
2022-12-27T00:26:14.714Z,101731.41
2022-12-27T00:28:41.239Z,101735.97
2022-12-27T00:31:08.420Z,101730.97
2022-12-27T00:33:36.716Z,101739.13
2022-12-27T00:36:05.262Z,101729.22
2022-12-27T00:38:32.556Z,101743.81
2022-12-27T00:40:59.729Z,101735.09
2022-12-27T00:43:26.431Z,101742.56
2022-12-27T00:45:53.496Z,101743.41
2022-12-27T00:48:19.956Z,101743.53
2022-12-27T00:50:47.131Z,101748.97
2022-12-27T00:53:14.403Z,101754.28
2022-12-27T00:55:45.091Z,101751.56
2022-12-27T00:58:11.730Z,101756.03
2022-12-27T01:00:38.167Z,101757.00
2022-12-27T01:03:04.545Z,101755.00
2022-12-27T01:05:31.053Z,101759.72
2022-12-27T01:07:57.463Z,101748.84
2022-12-27T01:10:24.584Z,101754.28
2022-12-27T01:12:50.964Z,101743.25
2022-12-27T01:15:17.401Z,101748.84
2022-12-27T01:17:43.786Z,101757.00
2022-12-27T01:20:10.533Z,101763.72
2022-12-27T01:22:36.970Z,101763.72
2022-12-27T01:25:03.709Z,101773.75
2022-12-27T01:27:30.089Z,101765.47
2022-12-27T01:29:56.518Z,101772.59
2022-12-27T01:32:22.945Z,101780.50
2022-12-27T01:34:50.903Z,101782.19
2022-12-27T01:37:17.324Z,101774.88
2022-12-27T01:39:43.707Z,101770.31
2022-12-27T01:42:35.598Z,101764.88
2022-12-27T01:45:02.673Z,101767.16
2022-12-27T01:47:54.611Z,101765.16
2022-12-27T01:50:24.004Z,101770.59
2022-12-27T01:53:21.473Z,101780.75
2022-12-27T01:56:20.559Z,101776.34
2022-12-27T01:58:55.844Z,101774.59
2022-12-27T02:01:28.887Z,101772.75
2022-12-27T02:04:09.041Z,101784.50
2022-12-27T02:06:38.449Z,101788.19
2022-12-27T02:09:23.059Z,101778.31
2022-12-27T02:11:56.330Z,101781.19
2022-12-27T02:14:33.299Z,101788.78
2022-12-27T02:17:03.115Z,101782.59
2022-12-27T02:19:41.412Z,101779.19
2022-12-27T02:22:19.917Z,101791.03
2022-12-27T02:25:12.867Z,101794.91
2022-12-27T02:27:57.307Z,101786.88
2022-12-27T02:30:24.225Z,101788.63
2022-12-27T02:33:03.353Z,101780.47
2022-12-27T02:35:53.899Z,101792.31
2022-12-27T02:38:34.970Z,101788.91
2022-12-27T02:41:22.827Z,101798.75
2022-12-27T02:44:07.656Z,101800.59
2022-12-27T02:46:53.107Z,101807.19
2022-12-27T02:49:45.805Z,101816.09
2022-12-27T02:52:50.551Z,101823.50
2022-12-27T02:55:35.911Z,101817.47
2022-12-27T02:58:59.964Z,101812.03
2022-12-27T03:02:06.429Z,101821.78
2022-12-27T03:04:57.653Z,101815.50
2022-12-27T03:07:42.861Z,101809.91
2022-12-27T03:11:00.668Z,101813.38
2022-12-27T03:14:01.222Z,101820.50
2022-12-27T03:16:57.980Z,101818.81
2022-12-27T03:20:09.330Z,101824.25
2022-12-27T03:22:57.954Z,101823.22
2022-12-27T03:25:28.689Z,101812.34
2022-12-27T03:28:28.765Z,101818.53
2022-12-27T03:31:21.157Z,101824.94
2022-12-27T03:33:50.197Z,101842.25
2022-12-27T03:36:40.493Z,101843.25
2022-12-27T03:39:16.565Z,101846.97
2022-12-27T03:42:09.503Z,101856.97
2022-12-27T03:44:36.044Z,101838.06
2022-12-27T03:47:12.688Z,101842.69
2022-12-27T03:49:45.198Z,101837.25
2022-12-27T03:52:23.827Z,101841.09
2022-12-27T03:54:51.884Z,101843.81
2022-12-27T03:57:21.535Z,101847.53
2022-12-27T03:59:47.980Z,101849.38
2022-12-27T04:02:14.759Z,101850.25
2022-12-27T04:04:41.580Z,101859.13
2022-12-27T04:07:08.053Z,101859.41
2022-12-27T04:09:52.868Z,101856.69
2022-12-27T04:12:37.919Z,101869.53
2022-12-27T04:15:23.793Z,101876.81
2022-12-27T04:18:08.963Z,101874.25
2022-12-27T04:20:53.755Z,101862.81
2022-12-27T04:23:38.631Z,101860.94
2022-12-27T04:26:23.673Z,101864.78
2022-12-27T04:29:09.038Z,101872.94
2022-12-27T04:31:53.915Z,101863.09
2022-12-27T04:34:39.076Z,101854.06
2022-12-27T04:37:06.047Z,101855.91
2022-12-27T04:39:32.618Z,101849.75
2022-12-27T04:42:17.647Z,101849.91
2022-12-27T04:45:02.527Z,101848.31
2022-12-27T04:47:47.789Z,101846.59
2022-12-27T04:50:53.332Z,101848.72
2022-12-27T04:53:40.162Z,101850.59
2022-12-27T04:56:07.219Z,101848.00
2022-12-27T04:58:34.642Z,101856.00
2022-12-27T05:01:21.861Z,101851.44
2022-12-27T05:03:50.796Z,101848.56
2022-12-27T05:06:18.701Z,101861.75
2022-12-27T05:09:04.047Z,101861.63
2022-12-27T05:11:49.300Z,101864.06
2022-12-27T05:14:15.942Z,101869.22
2022-12-27T05:16:44.220Z,101853.78
2022-12-27T05:19:12.953Z,101868.06
2022-12-27T05:22:03.081Z,101857.22
2022-12-27T05:24:48.776Z,101862.66
2022-12-27T05:27:15.702Z,101861.94
2022-12-27T05:29:42.139Z,101867.38
2022-12-27T05:32:13.082Z,101868.25
2022-12-27T05:34:40.260Z,101866.38
2022-12-27T05:37:06.662Z,101860.94
2022-12-27T05:39:33.103Z,101869.09
2022-12-27T05:41:59.457Z,101863.66
2022-12-27T05:44:25.861Z,101867.50
2022-12-27T05:46:54.149Z,101866.50
2022-12-27T05:49:20.616Z,101865.81
2022-12-27T05:51:47.210Z,101862.94
2022-12-27T05:54:13.608Z,101871.94
2022-12-27T05:56:40.033Z,101877.53
2022-12-27T05:59:08.048Z,101886.41
2022-12-27T06:01:34.764Z,101892.81
2022-12-27T06:04:01.254Z,101893.84
2022-12-27T06:06:28.835Z,101895.81
2022-12-27T06:08:55.252Z,101897.53
2022-12-27T06:11:21.682Z,101906.69
2022-12-27T06:13:51.368Z,101900.09
2022-12-27T06:16:19.056Z,101911.84
2022-12-27T06:18:45.601Z,101911.84
2022-12-27T06:21:20.691Z,101901.56
2022-12-27T06:23:48.139Z,101909.59
2022-12-27T06:26:20.944Z,101911.31
2022-12-27T06:28:49.578Z,101908.59
2022-12-27T06:31:17.246Z,101910.56
2022-12-27T06:33:43.655Z,101913.56
2022-12-27T06:36:12.907Z,101921.44
2022-12-27T06:38:40.001Z,101919.47
2022-12-27T06:41:09.488Z,101916.47
2022-12-27T06:43:36.183Z,101918.22
2022-12-27T06:46:06.076Z,101919.78
2022-12-27T06:48:32.937Z,101937.94
2022-12-27T06:50:59.689Z,101932.78
2022-12-27T06:53:27.197Z,101931.06
2022-12-27T06:55:53.642Z,101935.50
2022-12-27T06:58:20.070Z,101940.94
2022-12-27T07:00:46.609Z,101940.78
2022-12-27T07:03:13.130Z,101935.09
2022-12-27T07:05:39.599Z,101941.13
2022-12-27T07:08:06.317Z,101946.41
2022-12-27T07:10:32.712Z,101939.13
2022-12-27T07:12:59.366Z,101942.81
2022-12-27T07:15:25.818Z,101943.69
2022-12-27T07:17:52.278Z,101944.56
2022-12-27T07:20:18.802Z,101948.25
2022-12-27T07:22:45.235Z,101950.28
2022-12-27T07:25:11.691Z,101953.97
2022-12-27T07:27:38.172Z,101957.69
2022-12-27T07:30:05.511Z,101953.97
2022-12-27T07:32:32.028Z,101958.69
2022-12-27T07:34:58.390Z,101963.13
2022-12-27T07:37:24.814Z,101964.84
2022-12-27T07:39:51.212Z,101963.13
2022-12-27T07:42:17.659Z,101966.69
2022-12-27T07:44:44.011Z,101973.00
2022-12-27T07:47:10.499Z,101985.59
2022-12-27T07:49:36.919Z,101983.00
2022-12-27T07:52:03.393Z,101992.03
2022-12-27T07:54:29.765Z,101983.88
2022-12-27T07:56:56.141Z,102000.06
2022-12-27T07:59:22.496Z,101999.19
2022-12-27T08:02:07.302Z,102004.63
2022-12-27T08:04:37.060Z,102000.66
2022-12-27T08:07:08.440Z,102001.94
2022-12-27T08:09:38.725Z,101994.09
2022-12-27T08:12:05.998Z,101992.00
2022-12-27T08:14:32.545Z,101992.59
2022-12-27T08:17:04.745Z,101991.28
2022-12-27T08:19:31.320Z,101986.59
2022-12-27T08:21:57.710Z,101985.31
2022-12-27T08:24:24.879Z,101993.22
2022-12-27T08:26:51.259Z,102002.81
2022-12-27T08:29:17.625Z,102000.81
2022-12-27T08:31:44.072Z,101993.38
2022-12-27T08:34:10.449Z,101995.69
2022-12-27T08:36:54.833Z,101996.00
2022-12-27T08:39:21.873Z,101995.44
2022-12-27T08:41:48.364Z,102009.50
2022-12-27T08:44:15.367Z,102014.53
2022-12-27T08:46:41.818Z,102021.25
2022-12-27T08:49:08.228Z,102020.84
2022-12-27T08:51:40.689Z,102019.88
2022-12-27T08:54:07.932Z,102013.28
2022-12-27T08:56:34.348Z,102015.72
2022-12-27T08:59:00.865Z,102017.44
2022-12-27T09:01:27.588Z,102018.00
2022-12-27T09:03:54.113Z,102009.56
2022-12-27T09:06:23.082Z,102011.88
2022-12-27T09:08:50.851Z,102015.00
2022-12-27T09:11:23.810Z,102013.47
2022-12-27T09:13:50.560Z,102009.19
2022-12-27T09:16:20.574Z,102012.03
2022-12-27T09:18:50.357Z,102033.25
2022-12-27T09:21:18.288Z,102027.09
2022-12-27T09:23:45.542Z,102027.25
2022-12-27T09:26:29.140Z,102027.38
2022-12-27T09:28:56.635Z,102029.38
2022-12-27T09:31:24.690Z,102022.19
2022-12-27T09:33:52.479Z,102021.19
2022-12-27T09:36:22.081Z,102019.59
2022-12-27T09:38:49.871Z,102018.56
2022-12-27T09:44:52.654Z,102030.97
2022-12-27T09:47:28.398Z,102019.75
2022-12-27T09:50:03.433Z,102022.41
2022-12-27T09:52:41.900Z,102029.03
2022-12-27T09:55:32.851Z,102015.50
2022-12-27T09:58:15.984Z,102018.75
2022-12-27T10:00:46.378Z,102018.41
2022-12-27T10:03:13.197Z,102012.41
2022-12-27T10:05:42.196Z,102014.84
2022-12-27T10:08:42.706Z,102010.75
2022-12-27T10:11:37.541Z,101985.31
2022-12-27T10:14:13.152Z,101989.09
2022-12-27T10:16:48.609Z,101992.13
2022-12-27T10:19:20.883Z,101988.19
2022-12-27T10:22:01.044Z,101991.06
2022-12-27T10:24:39.732Z,101985.94
2022-12-27T10:27:20.705Z,101989.50
2022-12-27T10:29:48.792Z,101982.69
2022-12-27T10:32:16.126Z,101982.69
2022-12-27T10:34:42.688Z,101985.50
2022-12-27T10:37:15.667Z,101995.88
2022-12-27T10:39:42.917Z,101981.13
2022-12-27T10:42:35.516Z,101975.63
2022-12-27T10:45:30.169Z,101967.91
2022-12-27T10:48:00.150Z,101960.72
2022-12-27T10:50:29.294Z,101951.13
2022-12-27T10:52:57.641Z,101966.06
2022-12-27T10:55:38.126Z,101973.66
2022-12-27T10:58:26.470Z,101948.22
2022-12-27T11:00:55.203Z,101963.41
2022-12-27T11:03:22.072Z,101972.53
2022-12-27T11:06:00.728Z,101977.38
2022-12-27T11:08:27.429Z,101973.00
2022-12-27T11:11:12.765Z,101976.59
2022-12-27T11:13:39.892Z,101973.75
2022-12-27T11:16:13.229Z,101963.53
2022-12-27T11:18:46.542Z,101952.22
2022-12-27T11:21:23.899Z,101937.03
2022-12-27T11:23:56.784Z,101956.56
2022-12-27T11:26:30.660Z,101948.13
2022-12-27T11:29:00.471Z,101938.44
2022-12-27T11:31:40.361Z,101940.38
2022-12-27T11:34:15.279Z,101947.66
2022-12-27T11:36:45.475Z,101945.69
2022-12-27T11:39:44.496Z,101949.66
2022-12-27T11:42:21.799Z,101952.03
2022-12-27T11:45:04.811Z,101953.13
2022-12-27T11:47:45.150Z,101959.50
2022-12-27T11:50:24.576Z,101954.91
2022-12-27T11:53:28.578Z,101957.00
2022-12-27T11:56:24.153Z,101956.38
2022-12-27T11:59:20.876Z,101942.44
2022-12-27T12:01:53.402Z,101942.88
2022-12-27T12:04:41.818Z,101948.19
2022-12-27T12:07:20.340Z,101951.59
2022-12-27T12:10:05.401Z,101947.56
2022-12-27T12:13:15.752Z,101932.91
2022-12-27T12:15:55.597Z,101927.59
2022-12-27T12:18:45.276Z,101933.97
2022-12-27T12:21:34.850Z,101928.59
2022-12-27T12:24:03.962Z,101928.84
2022-12-27T12:26:56.100Z,101927.78
2022-12-27T12:29:37.602Z,101948.78
2022-12-27T12:32:45.418Z,101940.59
2022-12-27T12:35:32.971Z,101942.22
2022-12-27T12:38:05.600Z,101935.19
2022-12-27T12:41:01.437Z,101921.97
2022-12-27T12:44:00.110Z,101912.00
2022-12-27T12:46:36.606Z,101910.50
2022-12-27T12:49:24.134Z,101916.94
2022-12-27T12:52:23.613Z,101907.56
2022-12-27T12:55:19.744Z,101901.13
2022-12-27T12:58:06.546Z,101908.41
2022-12-27T13:01:27.303Z,101889.09
2022-12-27T13:04:10.773Z,101897.91
2022-12-27T13:07:17.881Z,101900.28
2022-12-27T13:09:44.326Z,101897.75
2022-12-27T13:12:18.513Z,101897.31
2022-12-27T13:15:23.345Z,101896.84
2022-12-27T13:18:03.412Z,101896.38
2022-12-27T13:20:36.012Z,101896.13
2022-12-27T13:23:12.258Z,101905.66
2022-12-27T13:25:53.767Z,101899.22
2022-12-27T13:28:51.140Z,101902.03
2022-12-27T13:31:29.682Z,101890.38
2022-12-27T13:34:26.675Z,101903.41
2022-12-27T13:37:29.779Z,101903.56
2022-12-27T13:40:16.673Z,101892.16
2022-12-27T13:43:10.987Z,101888.31
2022-12-27T13:45:43.310Z,101890.00
2022-12-27T13:48:16.264Z,101878.50
2022-12-27T13:50:48.486Z,101879.84
2022-12-27T13:53:27.374Z,101890.72
2022-12-27T13:56:52.729Z,101876.38
2022-12-27T13:59:42.313Z,101886.16
2022-12-27T14:02:23.149Z,101872.91
2022-12-27T14:05:01.859Z,101859.47
2022-12-27T14:07:40.760Z,101853.38
2022-12-27T14:10:19.430Z,101854.06
2022-12-27T14:13:12.763Z,101846.28
2022-12-27T14:15:57.979Z,101850.56
2022-12-27T14:18:44.489Z,101856.56
2022-12-27T14:21:19.788Z,101851.03
2022-12-27T14:24:20.737Z,101854.91
2022-12-27T14:27:21.079Z,101855.56
2022-12-27T14:30:06.322Z,101849.06
2022-12-27T14:33:03.357Z,101846.41
2022-12-27T14:35:38.956Z,101849.56
2022-12-27T14:38:29.290Z,101852.84
2022-12-27T14:41:20.710Z,101856.06
2022-12-27T14:44:25.229Z,101862.97
2022-12-27T14:47:19.393Z,101865.31
2022-12-27T14:49:51.751Z,101877.63
2022-12-27T14:52:55.864Z,101873.34
2022-12-27T14:55:35.918Z,101875.09
2022-12-27T14:58:04.921Z,101872.16
2022-12-27T15:00:53.339Z,101872.31
2022-12-27T15:03:41.459Z,101876.66
2022-12-27T15:06:40.077Z,101878.81
2022-12-27T15:09:27.911Z,101882.16
2022-12-27T15:12:21.833Z,101875.09
2022-12-27T15:15:01.170Z,101872.16
2022-12-27T15:17:39.442Z,101872.09
2022-12-27T15:20:20.614Z,101876.75
2022-12-27T15:22:49.824Z,101882.16
2022-12-27T15:25:35.241Z,101877.91
2022-12-27T15:28:17.061Z,101884.63
2022-12-27T15:31:20.710Z,101886.78
2022-12-27T15:34:08.659Z,101889.41
2022-12-27T15:36:47.049Z,101887.88
2022-12-27T15:39:32.268Z,101885.50
2022-12-27T15:42:02.623Z,101891.72
2022-12-27T15:44:43.185Z,101890.69
2022-12-27T15:47:39.141Z,101895.50
2022-12-27T15:50:28.999Z,101892.03
2022-12-27T15:53:25.308Z,101892.59
2022-12-27T15:56:08.693Z,101889.66
2022-12-27T15:58:35.371Z,101894.47
2022-12-27T16:01:22.116Z,101890.84
2022-12-27T16:03:53.251Z,101883.13
2022-12-27T16:06:34.628Z,101883.31
2022-12-27T16:09:23.234Z,101883.47
2022-12-27T16:12:01.985Z,101871.84
2022-12-27T16:14:40.616Z,101876.97
2022-12-27T16:17:31.222Z,101867.88
2022-12-27T16:20:21.323Z,101864.81
2022-12-27T16:22:50.846Z,101874.41
2022-12-27T16:25:37.117Z,101875.91
2022-12-27T16:28:07.775Z,101871.78
2022-12-27T16:30:55.511Z,101869.41
2022-12-27T16:33:33.441Z,101868.38
2022-12-27T16:36:11.858Z,101860.50
2022-12-27T16:39:04.619Z,101869.03
2022-12-27T16:41:54.551Z,101869.38
2022-12-27T16:44:23.700Z,101865.94
2022-12-27T16:46:56.410Z,101867.66
2022-12-27T16:49:28.778Z,101876.22
2022-12-27T16:52:13.281Z,101873.81
2022-12-27T16:55:08.184Z,101874.13
2022-12-27T16:57:42.007Z,101859.06
2022-12-27T17:00:08.468Z,101861.09
2022-12-27T17:02:39.837Z,101863.69
2022-12-27T17:05:15.236Z,101861.44
2022-12-27T17:08:09.466Z,101862.44
2022-12-27T17:10:50.856Z,101862.41
2022-12-27T17:13:27.901Z,101856.25
2022-12-27T17:16:12.665Z,101860.72
2022-12-27T17:18:50.603Z,101860.00
2022-12-27T17:21:30.948Z,101861.06
2022-12-27T17:24:00.321Z,101853.16
2022-12-27T17:26:47.001Z,101856.22
2022-12-27T17:29:51.360Z,101852.09
2022-12-27T17:32:51.823Z,101850.56
2022-12-27T17:35:42.945Z,101849.03
2022-12-27T17:38:44.433Z,101845.22
2022-12-27T17:41:52.281Z,101846.19
2022-12-27T17:44:37.990Z,101851.63
2022-12-27T17:47:31.203Z,101849.88
2022-12-27T17:50:14.403Z,101850.84
2022-12-27T17:52:59.526Z,101849.91
2022-12-27T17:55:47.592Z,101849.03
2022-12-27T17:58:16.376Z,101836.50
2022-12-27T18:00:57.204Z,101829.97
2022-12-27T18:03:32.723Z,101830.56
2022-12-27T18:05:59.225Z,101834.78
2022-12-27T18:08:29.464Z,101829.78
2022-12-27T18:11:01.467Z,101827.84
2022-12-27T18:13:33.166Z,101821.31
2022-12-27T18:16:05.568Z,101818.19
2022-12-27T18:18:34.169Z,101817.09
2022-12-27T18:21:05.807Z,101822.19
2022-12-27T18:23:43.088Z,101814.63
2022-12-27T18:26:13.447Z,101802.47
2022-12-27T18:28:41.492Z,101805.81
2022-12-27T18:31:35.281Z,101801.84
2022-12-27T18:34:23.462Z,101797.84
2022-12-27T18:37:00.884Z,101801.06
2022-12-27T18:39:33.906Z,101796.63
2022-12-27T18:42:11.922Z,101792.72
2022-12-27T18:44:46.344Z,101788.97
2022-12-27T18:47:27.232Z,101787.25
2022-12-27T18:50:01.023Z,101782.25
2022-12-27T18:52:34.702Z,101773.28
2022-12-27T18:55:14.338Z,101774.63
2022-12-27T18:57:40.977Z,101771.19
2022-12-27T19:00:13.675Z,101757.69
2022-12-27T19:02:42.175Z,101759.56
2022-12-27T19:05:17.309Z,101763.31
2022-12-27T19:07:43.836Z,101755.44
2022-12-27T19:10:20.683Z,101747.56
2022-12-27T19:12:47.632Z,101738.81
2022-12-27T19:15:24.869Z,101729.63
2022-12-27T19:17:55.082Z,101725.50
2022-12-27T19:20:34.662Z,101727.38
2022-12-27T19:23:05.054Z,101727.38
2022-12-27T19:25:37.495Z,101729.78
2022-12-27T19:28:09.961Z,101728.09
2022-12-27T19:30:42.037Z,101729.78
2022-12-27T19:33:15.329Z,101728.78
2022-12-27T19:35:42.695Z,101721.91
2022-12-27T19:38:20.638Z,101715.06
2022-12-27T19:40:50.622Z,101710.63
2022-12-27T19:43:18.086Z,101703.47
2022-12-27T19:45:44.542Z,101705.31
2022-12-27T19:48:11.540Z,101699.88
2022-12-27T19:50:43.157Z,101703.78
2022-12-27T19:53:15.363Z,101689.72
2022-12-27T19:55:41.929Z,101681.16
2022-12-27T19:58:27.846Z,101676.88
2022-12-27T20:00:55.393Z,101683.34
2022-12-27T20:03:21.887Z,101679.91
2022-12-27T20:06:12.669Z,101689.09
2022-12-27T20:08:42.710Z,101687.22
2022-12-27T20:11:14.613Z,101677.34
2022-12-27T20:13:41.516Z,101676.34
2022-12-27T20:16:10.887Z,101678.06
2022-12-27T20:18:38.701Z,101676.00
2022-12-27T20:21:05.962Z,101663.38
2022-12-27T20:23:32.609Z,101672.59
2022-12-27T20:25:59.143Z,101673.59
2022-12-27T20:28:25.565Z,101674.47
2022-12-27T20:30:52.040Z,101678.06
2022-12-27T20:33:18.447Z,101684.91
2022-12-27T20:35:45.471Z,101681.00
2022-12-27T20:38:12.384Z,101675.09
2022-12-27T20:40:40.501Z,101675.97
2022-12-27T20:43:06.914Z,101680.22
2022-12-27T20:45:34.241Z,101675.78
2022-12-27T20:48:00.717Z,101675.09
2022-12-27T20:50:27.152Z,101664.50
2022-12-27T20:52:53.571Z,101670.09
2022-12-27T20:55:19.923Z,101660.06
2022-12-27T20:57:46.353Z,101660.06
2022-12-27T21:00:14.455Z,101646.41
2022-12-27T21:02:41.139Z,101641.84
2022-12-27T21:05:08.351Z,101640.97
2022-12-27T21:07:35.319Z,101641.28
2022-12-27T21:10:02.107Z,101644.16
2022-12-27T21:12:28.546Z,101636.13
2022-12-27T21:14:54.974Z,101634.25
2022-12-27T21:17:21.337Z,101639.56
2022-12-27T21:19:47.758Z,101638.56
2022-12-27T21:22:14.192Z,101642.13
2022-12-27T21:24:40.636Z,101632.06
2022-12-27T21:27:07.036Z,101628.34
2022-12-27T21:29:33.451Z,101630.38
2022-12-27T21:32:01.445Z,101626.06
2022-12-27T21:34:28.041Z,101620.94
2022-12-27T21:36:54.435Z,101624.53
2022-12-27T21:39:20.834Z,101619.22
2022-12-27T21:41:47.257Z,101621.94
2022-12-27T21:44:13.668Z,101629.13
2022-12-27T21:46:42.053Z,101625.38
2022-12-27T21:49:12.358Z,101607.16
2022-12-27T21:51:40.976Z,101604.50
2022-12-27T21:54:08.070Z,101605.59
2022-12-27T21:56:34.508Z,101602.88
2022-12-27T21:59:02.919Z,101592.31
2022-12-27T22:01:50.610Z,101591.00
2022-12-27T22:04:17.924Z,101585.06
2022-12-27T22:06:47.164Z,101591.38
2022-12-27T22:09:14.233Z,101584.22
2022-12-27T22:11:40.689Z,101573.28
2022-12-27T22:14:07.202Z,101571.56
2022-12-27T22:16:36.519Z,101571.75
2022-12-27T22:19:06.137Z,101569.16
2022-12-27T22:21:34.416Z,101563.03
2022-12-27T22:24:02.273Z,101554.13
2022-12-27T22:26:31.596Z,101559.59
2022-12-27T22:28:58.096Z,101551.59
2022-12-27T22:31:27.596Z,101540.34
2022-12-27T22:33:54.063Z,101548.34
2022-12-27T22:36:26.355Z,101542.63
2022-12-27T22:38:55.839Z,101542.50
2022-12-27T22:41:26.033Z,101554.31
2022-12-27T22:44:04.371Z,101552.34
2022-12-27T22:46:51.341Z,101554.25
2022-12-27T22:49:18.113Z,101556.50
2022-12-27T22:51:45.053Z,101546.78
2022-12-27T22:54:11.452Z,101551.44
2022-12-27T22:56:40.226Z,101548.03
2022-12-27T22:59:08.345Z,101541.25
2022-12-27T23:01:35.357Z,101523.19
2022-12-27T23:04:05.129Z,101523.84
2022-12-27T23:06:33.990Z,101514.78
2022-12-27T23:09:01.194Z,101505.75
2022-12-27T23:11:30.698Z,101501.00
2022-12-27T23:14:00.426Z,101497.25
2022-12-27T23:16:27.417Z,101491.28
2022-12-27T23:18:54.264Z,101489.75
2022-12-27T23:21:24.074Z,101491.47
2022-12-27T23:23:51.960Z,101493.22
2022-12-27T23:26:21.322Z,101487.78
2022-12-27T23:28:51.296Z,101469.88
2022-12-27T23:31:19.158Z,101459.97
2022-12-27T23:33:45.783Z,101452.13
2022-12-27T23:36:13.443Z,101454.03
2022-12-27T23:38:44.256Z,101448.56
2022-12-27T23:41:16.459Z,101441.38
2022-12-27T23:43:58.528Z,101444.44
2022-12-27T23:46:30.939Z,101440.84
2022-12-27T23:48:59.125Z,101436.38
2022-12-27T23:51:26.453Z,101428.38
2022-12-27T23:53:52.935Z,101422.19
2022-12-27T23:56:33.817Z,101412.25
2022-12-27T23:59:02.991Z,101389.84
